sensor_id;sensor_type;location;lat;lon;timestamp;temperature;humidity
22112;DHT22;11222;50.872;4.312;2022-10-16T00:01:46;14.70;99.90
22112;DHT22;11222;50.872;4.312;2022-10-16T00:04:12;14.80;99.90
22112;DHT22;11222;50.872;4.312;2022-10-16T00:06:38;14.70;99.90
22112;DHT22;11222;50.872;4.312;2022-10-16T00:09:04;14.70;99.90
22112;DHT22;11222;50.872;4.312;2022-10-16T00:11:33;14.70;99.90
22112;DHT22;11222;50.872;4.312;2022-10-16T00:14:01;14.70;99.90
22112;DHT22;11222;50.872;4.312;2022-10-16T00:16:28;14.70;99.90
22112;DHT22;11222;50.872;4.312;2022-10-16T00:18:54;14.70;99.90
22112;DHT22;11222;50.872;4.312;2022-10-16T00:21:23;14.70;99.90
22112;DHT22;11222;50.872;4.312;2022-10-16T00:24:01;14.70;99.90
22112;DHT22;11222;50.872;4.312;2022-10-16T00:26:28;14.70;99.90
22112;DHT22;11222;50.872;4.312;2022-10-16T00:28:54;14.60;99.90
22112;DHT22;11222;50.872;4.312;2022-10-16T00:31:20;14.60;99.90
22112;DHT22;11222;50.872;4.312;2022-10-16T00:33:47;14.60;99.90
22112;DHT22;11222;50.872;4.312;2022-10-16T00:36:16;14.50;99.90
22112;DHT22;11222;50.872;4.312;2022-10-16T00:38:42;14.50;99.90
22112;DHT22;11222;50.872;4.312;2022-10-16T00:41:12;14.50;99.90
22112;DHT22;11222;50.872;4.312;2022-10-16T00:43:52;14.40;99.90
22112;DHT22;11222;50.872;4.312;2022-10-16T00:46:25;14.40;99.90
22112;DHT22;11222;50.872;4.312;2022-10-16T00:49:00;14.40;99.90
22112;DHT22;11222;50.872;4.312;2022-10-16T00:51:31;14.40;99.90
22112;DHT22;11222;50.872;4.312;2022-10-16T00:53:57;14.40;99.90
22112;DHT22;11222;50.872;4.312;2022-10-16T00:56:23;14.30;99.90
22112;DHT22;11222;50.872;4.312;2022-10-16T00:58:49;14.30;99.90
22112;DHT22;11222;50.872;4.312;2022-10-16T01:01:15;14.30;99.90
22112;DHT22;11222;50.872;4.312;2022-10-16T01:03:41;14.30;99.90
22112;DHT22;11222;50.872;4.312;2022-10-16T01:08:49;14.20;99.90
22112;DHT22;11222;50.872;4.312;2022-10-16T01:12:09;14.30;99.90
22112;DHT22;11222;50.872;4.312;2022-10-16T01:14:44;14.30;99.90
22112;DHT22;11222;50.872;4.312;2022-10-16T01:17:21;14.30;99.90
22112;DHT22;11222;50.872;4.312;2022-10-16T01:20:00;14.30;99.90
22112;DHT22;11222;50.872;4.312;2022-10-16T01:22:37;14.30;99.90
22112;DHT22;11222;50.872;4.312;2022-10-16T01:25:07;14.30;99.90
22112;DHT22;11222;50.872;4.312;2022-10-16T01:27:36;14.20;99.90
22112;DHT22;11222;50.872;4.312;2022-10-16T01:30:15;14.20;99.90
22112;DHT22;11222;50.872;4.312;2022-10-16T01:32:50;14.20;99.90
22112;DHT22;11222;50.872;4.312;2022-10-16T01:37:48;14.20;99.90
22112;DHT22;11222;50.872;4.312;2022-10-16T01:40:17;14.10;99.90
22112;DHT22;11222;50.872;4.312;2022-10-16T01:42:52;14.10;99.90
22112;DHT22;11222;50.872;4.312;2022-10-16T01:45:19;14.10;99.90
22112;DHT22;11222;50.872;4.312;2022-10-16T01:47:47;14.10;99.90
22112;DHT22;11222;50.872;4.312;2022-10-16T01:50:16;14.10;99.90
22112;DHT22;11222;50.872;4.312;2022-10-16T01:52:46;14.20;99.90
22112;DHT22;11222;50.872;4.312;2022-10-16T01:55:16;14.10;99.90
22112;DHT22;11222;50.872;4.312;2022-10-16T01:57:45;14.10;99.90
22112;DHT22;11222;50.872;4.312;2022-10-16T02:00:13;14.10;99.90
22112;DHT22;11222;50.872;4.312;2022-10-16T02:02:44;14.20;99.90
22112;DHT22;11222;50.872;4.312;2022-10-16T02:05:20;14.10;99.90
22112;DHT22;11222;50.872;4.312;2022-10-16T02:07:47;14.20;99.90
22112;DHT22;11222;50.872;4.312;2022-10-16T02:10:14;14.10;99.90
22112;DHT22;11222;50.872;4.312;2022-10-16T02:12:42;14.10;99.90
22112;DHT22;11222;50.872;4.312;2022-10-16T02:15:10;14.10;99.90
22112;DHT22;11222;50.872;4.312;2022-10-16T02:17:35;14.10;99.90
22112;DHT22;11222;50.872;4.312;2022-10-16T02:20:02;14.10;99.90
22112;DHT22;11222;50.872;4.312;2022-10-16T02:22:33;14.10;99.90
22112;DHT22;11222;50.872;4.312;2022-10-16T02:25:12;14.10;99.90
22112;DHT22;11222;50.872;4.312;2022-10-16T02:27:54;14.00;99.90
22112;DHT22;11222;50.872;4.312;2022-10-16T02:30:28;14.00;99.90
22112;DHT22;11222;50.872;4.312;2022-10-16T02:32:55;14.00;99.90
22112;DHT22;11222;50.872;4.312;2022-10-16T02:35:23;14.00;99.90
22112;DHT22;11222;50.872;4.312;2022-10-16T02:37:50;14.00;99.90
22112;DHT22;11222;50.872;4.312;2022-10-16T02:40:17;14.00;99.90
22112;DHT22;11222;50.872;4.312;2022-10-16T02:42:43;14.00;99.90
22112;DHT22;11222;50.872;4.312;2022-10-16T02:45:10;14.00;99.90
22112;DHT22;11222;50.872;4.312;2022-10-16T02:47:36;14.00;99.90
22112;DHT22;11222;50.872;4.312;2022-10-16T02:50:03;14.00;99.90
22112;DHT22;11222;50.872;4.312;2022-10-16T02:52:29;14.00;99.90
22112;DHT22;11222;50.872;4.312;2022-10-16T02:54:54;14.00;99.90
22112;DHT22;11222;50.872;4.312;2022-10-16T02:57:20;14.00;99.90
22112;DHT22;11222;50.872;4.312;2022-10-16T02:59:46;14.00;99.90
22112;DHT22;11222;50.872;4.312;2022-10-16T03:02:11;14.00;99.90
22112;DHT22;11222;50.872;4.312;2022-10-16T03:04:37;13.90;99.90
22112;DHT22;11222;50.872;4.312;2022-10-16T03:07:03;13.90;99.90
22112;DHT22;11222;50.872;4.312;2022-10-16T03:09:29;14.00;99.90
22112;DHT22;11222;50.872;4.312;2022-10-16T03:11:55;14.00;99.90
22112;DHT22;11222;50.872;4.312;2022-10-16T03:14:21;14.00;99.90
22112;DHT22;11222;50.872;4.312;2022-10-16T03:16:47;13.90;99.90
22112;DHT22;11222;50.872;4.312;2022-10-16T03:19:12;13.90;99.90
22112;DHT22;11222;50.872;4.312;2022-10-16T03:21:38;14.00;99.90
22112;DHT22;11222;50.872;4.312;2022-10-16T03:24:04;14.00;99.90
22112;DHT22;11222;50.872;4.312;2022-10-16T03:26:29;14.10;99.90
22112;DHT22;11222;50.872;4.312;2022-10-16T03:28:55;14.10;99.90
22112;DHT22;11222;50.872;4.312;2022-10-16T03:31:21;14.10;99.90
22112;DHT22;11222;50.872;4.312;2022-10-16T03:33:47;14.10;99.90
22112;DHT22;11222;50.872;4.312;2022-10-16T03:36:13;14.00;99.90
22112;DHT22;11222;50.872;4.312;2022-10-16T03:38:38;14.10;99.90
22112;DHT22;11222;50.872;4.312;2022-10-16T03:41:04;14.10;99.90
22112;DHT22;11222;50.872;4.312;2022-10-16T03:43:29;14.10;99.90
22112;DHT22;11222;50.872;4.312;2022-10-16T03:45:55;14.10;99.90
22112;DHT22;11222;50.872;4.312;2022-10-16T03:48:21;14.10;99.90
22112;DHT22;11222;50.872;4.312;2022-10-16T03:50:46;14.10;99.90
22112;DHT22;11222;50.872;4.312;2022-10-16T03:53:14;14.10;99.90
22112;DHT22;11222;50.872;4.312;2022-10-16T03:55:42;14.10;99.90
22112;DHT22;11222;50.872;4.312;2022-10-16T03:58:08;14.10;99.90
22112;DHT22;11222;50.872;4.312;2022-10-16T04:00:33;14.10;99.90
22112;DHT22;11222;50.872;4.312;2022-10-16T04:03:00;14.10;99.90
22112;DHT22;11222;50.872;4.312;2022-10-16T04:05:26;14.10;99.90
22112;DHT22;11222;50.872;4.312;2022-10-16T04:07:52;14.10;99.90
22112;DHT22;11222;50.872;4.312;2022-10-16T04:10:18;14.10;99.90
22112;DHT22;11222;50.872;4.312;2022-10-16T04:12:44;14.10;99.90
22112;DHT22;11222;50.872;4.312;2022-10-16T04:15:10;14.10;99.90
22112;DHT22;11222;50.872;4.312;2022-10-16T04:17:36;14.00;99.90
22112;DHT22;11222;50.872;4.312;2022-10-16T04:20:02;14.00;99.90
22112;DHT22;11222;50.872;4.312;2022-10-16T04:22:27;14.00;99.90
22112;DHT22;11222;50.872;4.312;2022-10-16T04:24:53;14.00;99.90
22112;DHT22;11222;50.872;4.312;2022-10-16T04:27:19;13.90;99.90
22112;DHT22;11222;50.872;4.312;2022-10-16T04:29:45;14.00;99.90
22112;DHT22;11222;50.872;4.312;2022-10-16T04:32:10;14.00;99.90
22112;DHT22;11222;50.872;4.312;2022-10-16T04:34:36;14.00;99.90
22112;DHT22;11222;50.872;4.312;2022-10-16T04:37:04;14.00;99.90
22112;DHT22;11222;50.872;4.312;2022-10-16T04:39:30;14.00;99.90
22112;DHT22;11222;50.872;4.312;2022-10-16T04:41:56;14.00;99.90
22112;DHT22;11222;50.872;4.312;2022-10-16T04:44:21;14.00;99.90
22112;DHT22;11222;50.872;4.312;2022-10-16T04:46:49;13.90;99.90
22112;DHT22;11222;50.872;4.312;2022-10-16T04:49:15;14.00;99.90
22112;DHT22;11222;50.872;4.312;2022-10-16T04:51:41;14.00;99.90
22112;DHT22;11222;50.872;4.312;2022-10-16T04:54:08;14.00;99.90
22112;DHT22;11222;50.872;4.312;2022-10-16T04:56:33;14.00;99.90
22112;DHT22;11222;50.872;4.312;2022-10-16T04:59:05;13.90;99.90
22112;DHT22;11222;50.872;4.312;2022-10-16T05:01:31;14.00;99.90
22112;DHT22;11222;50.872;4.312;2022-10-16T05:03:57;13.90;99.90
22112;DHT22;11222;50.872;4.312;2022-10-16T05:06:22;13.90;99.90
22112;DHT22;11222;50.872;4.312;2022-10-16T05:08:48;13.90;99.90
22112;DHT22;11222;50.872;4.312;2022-10-16T05:11:13;13.90;99.90
22112;DHT22;11222;50.872;4.312;2022-10-16T05:13:39;13.80;99.90
22112;DHT22;11222;50.872;4.312;2022-10-16T05:16:05;13.80;99.90
22112;DHT22;11222;50.872;4.312;2022-10-16T05:18:31;13.80;99.90
22112;DHT22;11222;50.872;4.312;2022-10-16T05:20:56;13.80;99.90
22112;DHT22;11222;50.872;4.312;2022-10-16T05:23:22;13.80;99.90
22112;DHT22;11222;50.872;4.312;2022-10-16T05:25:58;13.80;99.90
22112;DHT22;11222;50.872;4.312;2022-10-16T05:28:26;13.80;99.90
22112;DHT22;11222;50.872;4.312;2022-10-16T05:30:52;13.80;99.90
22112;DHT22;11222;50.872;4.312;2022-10-16T05:33:20;13.70;99.90
22112;DHT22;11222;50.872;4.312;2022-10-16T05:35:46;13.70;99.90
22112;DHT22;11222;50.872;4.312;2022-10-16T05:38:12;13.70;99.90
22112;DHT22;11222;50.872;4.312;2022-10-16T05:40:38;13.70;99.90
22112;DHT22;11222;50.872;4.312;2022-10-16T05:43:03;13.70;99.90
22112;DHT22;11222;50.872;4.312;2022-10-16T05:45:29;13.70;99.90
22112;DHT22;11222;50.872;4.312;2022-10-16T05:47:55;13.60;99.90
22112;DHT22;11222;50.872;4.312;2022-10-16T05:50:21;13.60;99.90
22112;DHT22;11222;50.872;4.312;2022-10-16T05:52:46;13.70;99.90
22112;DHT22;11222;50.872;4.312;2022-10-16T05:55:12;13.70;99.90
22112;DHT22;11222;50.872;4.312;2022-10-16T05:57:38;13.70;99.90
22112;DHT22;11222;50.872;4.312;2022-10-16T06:00:04;13.70;99.90
22112;DHT22;11222;50.872;4.312;2022-10-16T06:02:30;13.70;99.90
22112;DHT22;11222;50.872;4.312;2022-10-16T06:04:56;13.70;99.90
22112;DHT22;11222;50.872;4.312;2022-10-16T06:07:22;13.70;99.90
22112;DHT22;11222;50.872;4.312;2022-10-16T06:09:52;13.70;99.90
22112;DHT22;11222;50.872;4.312;2022-10-16T06:12:18;13.70;99.90
22112;DHT22;11222;50.872;4.312;2022-10-16T06:14:45;13.70;99.90
22112;DHT22;11222;50.872;4.312;2022-10-16T06:17:15;13.70;99.90
22112;DHT22;11222;50.872;4.312;2022-10-16T06:19:41;13.70;99.90
22112;DHT22;11222;50.872;4.312;2022-10-16T06:22:07;13.70;99.90
22112;DHT22;11222;50.872;4.312;2022-10-16T06:24:32;13.70;99.90
22112;DHT22;11222;50.872;4.312;2022-10-16T06:26:58;13.80;99.90
22112;DHT22;11222;50.872;4.312;2022-10-16T06:29:24;13.80;99.90
22112;DHT22;11222;50.872;4.312;2022-10-16T06:31:49;13.80;99.90
22112;DHT22;11222;50.872;4.312;2022-10-16T06:34:15;13.80;99.90
22112;DHT22;11222;50.872;4.312;2022-10-16T06:36:41;13.80;99.90
22112;DHT22;11222;50.872;4.312;2022-10-16T06:39:07;13.90;99.90
22112;DHT22;11222;50.872;4.312;2022-10-16T06:41:33;13.90;99.90
22112;DHT22;11222;50.872;4.312;2022-10-16T06:43:59;13.90;99.90
22112;DHT22;11222;50.872;4.312;2022-10-16T06:46:25;13.90;99.90
22112;DHT22;11222;50.872;4.312;2022-10-16T06:48:51;14.00;99.90
22112;DHT22;11222;50.872;4.312;2022-10-16T06:51:19;14.00;99.90
22112;DHT22;11222;50.872;4.312;2022-10-16T06:53:50;14.00;99.90
22112;DHT22;11222;50.872;4.312;2022-10-16T06:56:19;14.10;99.90
22112;DHT22;11222;50.872;4.312;2022-10-16T06:58:46;14.10;99.90
22112;DHT22;11222;50.872;4.312;2022-10-16T07:01:13;14.10;99.90
22112;DHT22;11222;50.872;4.312;2022-10-16T07:03:41;14.10;99.90
22112;DHT22;11222;50.872;4.312;2022-10-16T07:06:09;14.10;99.90
22112;DHT22;11222;50.872;4.312;2022-10-16T07:08:36;14.10;99.90
22112;DHT22;11222;50.872;4.312;2022-10-16T07:11:05;14.10;99.90
22112;DHT22;11222;50.872;4.312;2022-10-16T07:13:36;14.10;99.90
22112;DHT22;11222;50.872;4.312;2022-10-16T07:18:35;14.00;99.90
22112;DHT22;11222;50.872;4.312;2022-10-16T07:21:10;14.10;99.90
22112;DHT22;11222;50.872;4.312;2022-10-16T07:23:37;14.10;99.90
22112;DHT22;11222;50.872;4.312;2022-10-16T07:26:04;14.10;99.90
22112;DHT22;11222;50.872;4.312;2022-10-16T07:28:30;14.20;99.90
22112;DHT22;11222;50.872;4.312;2022-10-16T07:31:01;14.10;99.90
22112;DHT22;11222;50.872;4.312;2022-10-16T07:33:29;14.20;99.90
22112;DHT22;11222;50.872;4.312;2022-10-16T07:35:55;14.20;99.90
22112;DHT22;11222;50.872;4.312;2022-10-16T07:38:21;14.20;99.90
22112;DHT22;11222;50.872;4.312;2022-10-16T07:40:48;14.20;99.90
22112;DHT22;11222;50.872;4.312;2022-10-16T07:43:14;14.30;99.90
22112;DHT22;11222;50.872;4.312;2022-10-16T07:45:48;14.30;99.90
22112;DHT22;11222;50.872;4.312;2022-10-16T07:48:17;14.40;99.90
22112;DHT22;11222;50.872;4.312;2022-10-16T07:50:44;14.40;99.90
22112;DHT22;11222;50.872;4.312;2022-10-16T07:53:10;14.40;99.90
22112;DHT22;11222;50.872;4.312;2022-10-16T07:55:36;14.50;99.90
22112;DHT22;11222;50.872;4.312;2022-10-16T07:58:02;14.50;99.90
22112;DHT22;11222;50.872;4.312;2022-10-16T08:00:28;14.60;99.90
22112;DHT22;11222;50.872;4.312;2022-10-16T08:02:53;14.60;99.90
22112;DHT22;11222;50.872;4.312;2022-10-16T08:05:19;14.70;99.90
22112;DHT22;11222;50.872;4.312;2022-10-16T08:07:49;14.70;99.90
22112;DHT22;11222;50.872;4.312;2022-10-16T08:10:17;14.70;99.90
22112;DHT22;11222;50.872;4.312;2022-10-16T08:12:43;14.80;99.90
22112;DHT22;11222;50.872;4.312;2022-10-16T08:15:09;14.80;99.90
22112;DHT22;11222;50.872;4.312;2022-10-16T08:17:35;14.80;99.90
22112;DHT22;11222;50.872;4.312;2022-10-16T08:20:00;14.90;99.90
22112;DHT22;11222;50.872;4.312;2022-10-16T08:22:27;14.90;99.90
22112;DHT22;11222;50.872;4.312;2022-10-16T08:24:52;14.90;99.90
22112;DHT22;11222;50.872;4.312;2022-10-16T08:27:18;15.00;99.90
22112;DHT22;11222;50.872;4.312;2022-10-16T08:29:44;15.00;99.90
22112;DHT22;11222;50.872;4.312;2022-10-16T08:32:09;15.00;99.90
22112;DHT22;11222;50.872;4.312;2022-10-16T08:34:35;15.10;99.90
22112;DHT22;11222;50.872;4.312;2022-10-16T08:37:01;15.20;99.90
22112;DHT22;11222;50.872;4.312;2022-10-16T08:39:27;15.20;99.90
22112;DHT22;11222;50.872;4.312;2022-10-16T08:50:39;15.50;99.90
22112;DHT22;11222;50.872;4.312;2022-10-16T08:53:06;15.60;99.90
22112;DHT22;11222;50.872;4.312;2022-10-16T08:55:52;15.60;99.90
22112;DHT22;11222;50.872;4.312;2022-10-16T08:58:26;15.60;99.90
22112;DHT22;11222;50.872;4.312;2022-10-16T09:00:57;15.70;99.90
22112;DHT22;11222;50.872;4.312;2022-10-16T09:14:08;16.10;99.90
22112;DHT22;11222;50.872;4.312;2022-10-16T09:16:46;16.10;99.90
22112;DHT22;11222;50.872;4.312;2022-10-16T09:21:45;16.10;99.90
22112;DHT22;11222;50.872;4.312;2022-10-16T09:24:22;16.20;99.90
22112;DHT22;11222;50.872;4.312;2022-10-16T09:26:49;16.30;99.90
22112;DHT22;11222;50.872;4.312;2022-10-16T09:29:20;16.30;99.90
22112;DHT22;11222;50.872;4.312;2022-10-16T09:31:47;16.40;99.90
22112;DHT22;11222;50.872;4.312;2022-10-16T09:36:56;16.40;99.90
22112;DHT22;11222;50.872;4.312;2022-10-16T09:39:22;16.60;99.90
22112;DHT22;11222;50.872;4.312;2022-10-16T09:41:48;16.70;99.90
22112;DHT22;11222;50.872;4.312;2022-10-16T09:46:49;16.70;99.90
22112;DHT22;11222;50.872;4.312;2022-10-16T09:49:26;16.80;99.90
22112;DHT22;11222;50.872;4.312;2022-10-16T09:52:09;16.80;99.90
22112;DHT22;11222;50.872;4.312;2022-10-16T09:54:36;16.90;99.90
22112;DHT22;11222;50.872;4.312;2022-10-16T09:57:06;17.00;99.90
22112;DHT22;11222;50.872;4.312;2022-10-16T09:59:32;17.20;99.90
22112;DHT22;11222;50.872;4.312;2022-10-16T10:02:02;17.30;99.90
22112;DHT22;11222;50.872;4.312;2022-10-16T10:04:49;17.30;99.90
22112;DHT22;11222;50.872;4.312;2022-10-16T10:07:21;17.40;99.90
22112;DHT22;11222;50.872;4.312;2022-10-16T10:09:49;17.70;99.90
22112;DHT22;11222;50.872;4.312;2022-10-16T10:12:28;17.90;99.90
22112;DHT22;11222;50.872;4.312;2022-10-16T10:15:10;18.50;99.90
22112;DHT22;11222;50.872;4.312;2022-10-16T10:17:49;19.90;99.90
22112;DHT22;11222;50.872;4.312;2022-10-16T10:20:30;21.60;99.90
22112;DHT22;11222;50.872;4.312;2022-10-16T10:23:00;23.50;99.90
22112;DHT22;11222;50.872;4.312;2022-10-16T10:25:40;24.30;99.90
22112;DHT22;11222;50.872;4.312;2022-10-16T10:28:34;24.00;99.90
22112;DHT22;11222;50.872;4.312;2022-10-16T10:33:54;25.50;99.90
22112;DHT22;11222;50.872;4.312;2022-10-16T10:36:37;25.50;99.90
22112;DHT22;11222;50.872;4.312;2022-10-16T10:44:30;25.10;99.90
22112;DHT22;11222;50.872;4.312;2022-10-16T10:47:37;26.30;99.90
22112;DHT22;11222;50.872;4.312;2022-10-16T11:06:32;23.60;99.90
22112;DHT22;11222;50.872;4.312;2022-10-16T11:12:39;22.40;99.90
22112;DHT22;11222;50.872;4.312;2022-10-16T11:15:21;21.30;99.90
22112;DHT22;11222;50.872;4.312;2022-10-16T11:18:08;20.10;99.90
22112;DHT22;11222;50.872;4.312;2022-10-16T11:20:52;19.80;99.90
22112;DHT22;11222;50.872;4.312;2022-10-16T11:26:08;21.60;99.90
22112;DHT22;11222;50.872;4.312;2022-10-16T11:28:46;21.70;99.90
22112;DHT22;11222;50.872;4.312;2022-10-16T11:31:24;22.10;99.90
22112;DHT22;11222;50.872;4.312;2022-10-16T11:34:05;22.80;99.90
22112;DHT22;11222;50.872;4.312;2022-10-16T11:36:50;22.50;99.90
22112;DHT22;11222;50.872;4.312;2022-10-16T11:39:27;21.60;99.90
22112;DHT22;11222;50.872;4.312;2022-10-16T11:42:04;21.10;99.90
22112;DHT22;11222;50.872;4.312;2022-10-16T11:47:33;24.00;99.90
22112;DHT22;11222;50.872;4.312;2022-10-16T11:50:23;25.00;99.90
22112;DHT22;11222;50.872;4.312;2022-10-16T11:55:40;23.50;99.90
22112;DHT22;11222;50.872;4.312;2022-10-16T12:07:19;21.20;99.90
22112;DHT22;11222;50.872;4.312;2022-10-16T12:09:31;21.20;99.90
22112;DHT22;11222;50.872;4.312;2022-10-16T12:11:58;20.80;99.90
22112;DHT22;11222;50.872;4.312;2022-10-16T12:17:35;20.50;99.90
22112;DHT22;11222;50.872;4.312;2022-10-16T12:20:24;20.60;99.90
22112;DHT22;11222;50.872;4.312;2022-10-16T12:25:39;20.60;99.90
22112;DHT22;11222;50.872;4.312;2022-10-16T12:30:41;20.20;99.90
22112;DHT22;11222;50.872;4.312;2022-10-16T12:35:49;20.40;99.90
22112;DHT22;11222;50.872;4.312;2022-10-16T12:38:26;20.50;99.90
22112;DHT22;11222;50.872;4.312;2022-10-16T12:41:02;20.80;99.90
22112;DHT22;11222;50.872;4.312;2022-10-16T12:43:37;20.90;99.90
22112;DHT22;11222;50.872;4.312;2022-10-16T12:46:54;20.90;99.90
22112;DHT22;11222;50.872;4.312;2022-10-16T12:49:31;20.60;99.90
22112;DHT22;11222;50.872;4.312;2022-10-16T12:51:58;20.20;99.90
22112;DHT22;11222;50.872;4.312;2022-10-16T12:54:29;20.00;99.90
22112;DHT22;11222;50.872;4.312;2022-10-16T13:27:32;20.60;99.90
22112;DHT22;11222;50.872;4.312;2022-10-16T13:30:18;20.50;99.90
22112;DHT22;11222;50.872;4.312;2022-10-16T13:32:50;20.50;99.90
22112;DHT22;11222;50.872;4.312;2022-10-16T13:35:23;20.40;99.90
22112;DHT22;11222;50.872;4.312;2022-10-16T13:37:50;20.30;99.90
22112;DHT22;11222;50.872;4.312;2022-10-16T13:40:21;20.50;99.90
22112;DHT22;11222;50.872;4.312;2022-10-16T13:42:48;20.60;99.90
22112;DHT22;11222;50.872;4.312;2022-10-16T13:45:21;20.70;99.90
22112;DHT22;11222;50.872;4.312;2022-10-16T13:47:47;20.70;99.90
22112;DHT22;11222;50.872;4.312;2022-10-16T13:50:16;20.60;99.90
22112;DHT22;11222;50.872;4.312;2022-10-16T13:52:43;20.40;99.90
22112;DHT22;11222;50.872;4.312;2022-10-16T13:55:17;20.50;99.90
22112;DHT22;11222;50.872;4.312;2022-10-16T13:57:43;20.60;99.90
22112;DHT22;11222;50.872;4.312;2022-10-16T14:00:19;20.50;99.90
22112;DHT22;11222;50.872;4.312;2022-10-16T14:02:52;20.50;99.90
22112;DHT22;11222;50.872;4.312;2022-10-16T14:05:19;20.40;99.90
22112;DHT22;11222;50.872;4.312;2022-10-16T14:07:50;20.40;99.90
22112;DHT22;11222;50.872;4.312;2022-10-16T14:10:28;20.50;99.90
22112;DHT22;11222;50.872;4.312;2022-10-16T14:13:00;20.50;99.90
22112;DHT22;11222;50.872;4.312;2022-10-16T14:15:27;20.50;99.90
22112;DHT22;11222;50.872;4.312;2022-10-16T14:17:54;20.50;99.90
22112;DHT22;11222;50.872;4.312;2022-10-16T14:20:28;20.40;99.90
22112;DHT22;11222;50.872;4.312;2022-10-16T14:23:16;20.50;99.90
22112;DHT22;11222;50.872;4.312;2022-10-16T14:25:44;20.50;99.90
22112;DHT22;11222;50.872;4.312;2022-10-16T14:28:21;20.30;99.90
22112;DHT22;11222;50.872;4.312;2022-10-16T14:31:02;20.20;99.90
22112;DHT22;11222;50.872;4.312;2022-10-16T14:33:40;20.30;99.90
22112;DHT22;11222;50.872;4.312;2022-10-16T14:36:16;20.30;99.90
22112;DHT22;11222;50.872;4.312;2022-10-16T14:39:06;20.10;99.90
22112;DHT22;11222;50.872;4.312;2022-10-16T14:41:44;20.20;99.90
22112;DHT22;11222;50.872;4.312;2022-10-16T14:44:11;20.50;99.90
22112;DHT22;11222;50.872;4.312;2022-10-16T14:46:41;20.50;99.90
22112;DHT22;11222;50.872;4.312;2022-10-16T14:51:39;20.40;99.90
22112;DHT22;11222;50.872;4.312;2022-10-16T14:54:10;20.60;99.90
22112;DHT22;11222;50.872;4.312;2022-10-16T14:59:35;20.50;99.90
22112;DHT22;11222;50.872;4.312;2022-10-16T15:04:49;20.10;99.90
22112;DHT22;11222;50.872;4.312;2022-10-16T15:07:16;20.10;99.90
22112;DHT22;11222;50.872;4.312;2022-10-16T15:09:42;19.90;99.90
22112;DHT22;11222;50.872;4.312;2022-10-16T15:12:08;19.80;99.90
22112;DHT22;11222;50.872;4.312;2022-10-16T15:14:34;19.30;99.90
22112;DHT22;11222;50.872;4.312;2022-10-16T15:16:59;19.10;99.90
22112;DHT22;11222;50.872;4.312;2022-10-16T15:19:25;19.00;99.90
22112;DHT22;11222;50.872;4.312;2022-10-16T15:21:51;18.90;99.90
22112;DHT22;11222;50.872;4.312;2022-10-16T15:24:18;18.90;99.90
22112;DHT22;11222;50.872;4.312;2022-10-16T15:26:43;19.00;99.90
22112;DHT22;11222;50.872;4.312;2022-10-16T15:29:12;19.10;99.90
22112;DHT22;11222;50.872;4.312;2022-10-16T15:31:37;19.20;99.90
22112;DHT22;11222;50.872;4.312;2022-10-16T15:34:04;19.40;99.90
22112;DHT22;11222;50.872;4.312;2022-10-16T15:36:36;19.60;99.90
22112;DHT22;11222;50.872;4.312;2022-10-16T15:39:03;19.70;99.90
22112;DHT22;11222;50.872;4.312;2022-10-16T15:41:29;19.70;99.90
22112;DHT22;11222;50.872;4.312;2022-10-16T15:43:55;19.80;99.90
22112;DHT22;11222;50.872;4.312;2022-10-16T15:46:23;19.70;99.90
22112;DHT22;11222;50.872;4.312;2022-10-16T15:48:50;19.70;99.90
22112;DHT22;11222;50.872;4.312;2022-10-16T15:51:17;19.70;99.90
22112;DHT22;11222;50.872;4.312;2022-10-16T15:53:43;19.70;99.90
22112;DHT22;11222;50.872;4.312;2022-10-16T15:56:12;19.40;99.90
22112;DHT22;11222;50.872;4.312;2022-10-16T15:58:38;19.00;99.90
22112;DHT22;11222;50.872;4.312;2022-10-16T16:01:04;18.80;99.90
22112;DHT22;11222;50.872;4.312;2022-10-16T16:03:31;18.80;99.90
22112;DHT22;11222;50.872;4.312;2022-10-16T16:06:03;18.80;99.90
22112;DHT22;11222;50.872;4.312;2022-10-16T16:08:29;18.90;99.90
22112;DHT22;11222;50.872;4.312;2022-10-16T16:11:04;18.90;99.90
22112;DHT22;11222;50.872;4.312;2022-10-16T16:13:29;18.70;99.90
22112;DHT22;11222;50.872;4.312;2022-10-16T16:15:56;18.50;99.90
22112;DHT22;11222;50.872;4.312;2022-10-16T16:18:21;18.50;99.90
22112;DHT22;11222;50.872;4.312;2022-10-16T16:20:49;18.50;99.90
22112;DHT22;11222;50.872;4.312;2022-10-16T16:23:15;18.50;99.90
22112;DHT22;11222;50.872;4.312;2022-10-16T16:25:41;18.40;99.90
22112;DHT22;11222;50.872;4.312;2022-10-16T16:28:08;18.50;99.90
22112;DHT22;11222;50.872;4.312;2022-10-16T16:30:36;18.50;99.90
22112;DHT22;11222;50.872;4.312;2022-10-16T16:33:02;18.50;99.90
22112;DHT22;11222;50.872;4.312;2022-10-16T16:35:28;18.60;99.90
22112;DHT22;11222;50.872;4.312;2022-10-16T16:37:54;18.60;99.90
22112;DHT22;11222;50.872;4.312;2022-10-16T16:40:21;18.50;99.90
22112;DHT22;11222;50.872;4.312;2022-10-16T16:42:50;18.50;99.90
22112;DHT22;11222;50.872;4.312;2022-10-16T16:45:15;18.40;99.90
22112;DHT22;11222;50.872;4.312;2022-10-16T16:47:41;18.30;99.90
22112;DHT22;11222;50.872;4.312;2022-10-16T16:50:07;18.30;99.90
22112;DHT22;11222;50.872;4.312;2022-10-16T16:52:34;18.30;99.90
22112;DHT22;11222;50.872;4.312;2022-10-16T16:55:00;18.30;99.90
22112;DHT22;11222;50.872;4.312;2022-10-16T16:57:26;18.50;99.90
22112;DHT22;11222;50.872;4.312;2022-10-16T16:59:52;18.70;99.90
22112;DHT22;11222;50.872;4.312;2022-10-16T17:02:18;19.00;99.90
22112;DHT22;11222;50.872;4.312;2022-10-16T17:04:43;19.20;99.90
22112;DHT22;11222;50.872;4.312;2022-10-16T17:07:09;19.30;99.90
22112;DHT22;11222;50.872;4.312;2022-10-16T17:09:35;19.40;99.90
22112;DHT22;11222;50.872;4.312;2022-10-16T17:12:01;19.00;99.90
22112;DHT22;11222;50.872;4.312;2022-10-16T17:14:26;18.70;99.90
22112;DHT22;11222;50.872;4.312;2022-10-16T17:16:52;18.60;99.90
22112;DHT22;11222;50.872;4.312;2022-10-16T17:19:19;18.60;99.90
22112;DHT22;11222;50.872;4.312;2022-10-16T17:21:48;18.60;99.90
22112;DHT22;11222;50.872;4.312;2022-10-16T17:24:14;18.70;99.90
22112;DHT22;11222;50.872;4.312;2022-10-16T17:26:40;18.70;99.90
22112;DHT22;11222;50.872;4.312;2022-10-16T17:29:10;18.60;99.90
22112;DHT22;11222;50.872;4.312;2022-10-16T17:31:36;18.50;99.90
22112;DHT22;11222;50.872;4.312;2022-10-16T17:34:04;18.50;99.90
22112;DHT22;11222;50.872;4.312;2022-10-16T17:36:32;18.50;99.90
22112;DHT22;11222;50.872;4.312;2022-10-16T17:39:05;18.50;99.90
22112;DHT22;11222;50.872;4.312;2022-10-16T17:41:31;18.30;99.90
22112;DHT22;11222;50.872;4.312;2022-10-16T17:43:58;18.20;99.90
22112;DHT22;11222;50.872;4.312;2022-10-16T17:46:24;17.80;99.90
22112;DHT22;11222;50.872;4.312;2022-10-16T17:48:51;17.60;99.90
22112;DHT22;11222;50.872;4.312;2022-10-16T17:51:26;17.30;99.90
22112;DHT22;11222;50.872;4.312;2022-10-16T17:53:54;17.20;99.90